sensor_id;sensor_type;location;lat;lon;timestamp;P1;durP1;ratioP1;P2;durP2;ratioP2
8909;SDS011;4490;49.072;8.804;2023-03-19T00:00:15;5.97;;;4.13;;
8909;SDS011;4490;49.072;8.804;2023-03-19T00:02:41;5.40;;;3.80;;
8909;SDS011;4490;49.072;8.804;2023-03-19T00:05:13;8.53;;;4.20;;
8909;SDS011;4490;49.072;8.804;2023-03-19T00:07:39;6.17;;;4.00;;
8909;SDS011;4490;49.072;8.804;2023-03-19T00:10:05;5.27;;;3.97;;
8909;SDS011;4490;49.072;8.804;2023-03-19T00:12:31;6.57;;;3.60;;
8909;SDS011;4490;49.072;8.804;2023-03-19T00:14:56;4.13;;;3.60;;
8909;SDS011;4490;49.072;8.804;2023-03-19T00:17:22;4.87;;;3.43;;
8909;SDS011;4490;49.072;8.804;2023-03-19T00:19:48;5.23;;;3.50;;
8909;SDS011;4490;49.072;8.804;2023-03-19T00:22:13;3.97;;;3.40;;
8909;SDS011;4490;49.072;8.804;2023-03-19T00:24:39;6.63;;;3.90;;
8909;SDS011;4490;49.072;8.804;2023-03-19T00:27:04;6.90;;;4.07;;
8909;SDS011;4490;49.072;8.804;2023-03-19T00:29:30;6.20;;;4.00;;
8909;SDS011;4490;49.072;8.804;2023-03-19T00:31:56;4.27;;;3.27;;
8909;SDS011;4490;49.072;8.804;2023-03-19T00:34:22;4.93;;;3.40;;
8909;SDS011;4490;49.072;8.804;2023-03-19T00:36:47;4.13;;;3.23;;
8909;SDS011;4490;49.072;8.804;2023-03-19T00:39:13;4.70;;;3.67;;
8909;SDS011;4490;49.072;8.804;2023-03-19T00:41:39;6.57;;;3.70;;
8909;SDS011;4490;49.072;8.804;2023-03-19T00:44:05;5.77;;;3.77;;
8909;SDS011;4490;49.072;8.804;2023-03-19T00:46:31;5.30;;;3.53;;
8909;SDS011;4490;49.072;8.804;2023-03-19T00:48:56;5.73;;;3.77;;
8909;SDS011;4490;49.072;8.804;2023-03-19T00:51:23;3.80;;;3.43;;
8909;SDS011;4490;49.072;8.804;2023-03-19T00:53:50;4.63;;;3.63;;
8909;SDS011;4490;49.072;8.804;2023-03-19T00:56:16;5.03;;;3.33;;
8909;SDS011;4490;49.072;8.804;2023-03-19T00:58:43;6.33;;;3.57;;
8909;SDS011;4490;49.072;8.804;2023-03-19T01:01:10;6.07;;;3.27;;
8909;SDS011;4490;49.072;8.804;2023-03-19T01:03:38;4.30;;;3.03;;
8909;SDS011;4490;49.072;8.804;2023-03-19T01:06:04;4.50;;;3.30;;
8909;SDS011;4490;49.072;8.804;2023-03-19T01:08:30;7.13;;;3.83;;
8909;SDS011;4490;49.072;8.804;2023-03-19T01:11:02;4.70;;;3.43;;
8909;SDS011;4490;49.072;8.804;2023-03-19T01:13:29;5.30;;;3.60;;
8909;SDS011;4490;49.072;8.804;2023-03-19T01:15:56;5.23;;;3.30;;
8909;SDS011;4490;49.072;8.804;2023-03-19T01:18:21;6.80;;;3.60;;
8909;SDS011;4490;49.072;8.804;2023-03-19T01:20:47;7.70;;;4.17;;
8909;SDS011;4490;49.072;8.804;2023-03-19T01:23:13;7.43;;;4.00;;
8909;SDS011;4490;49.072;8.804;2023-03-19T01:25:38;4.77;;;4.10;;
8909;SDS011;4490;49.072;8.804;2023-03-19T01:28:04;4.67;;;3.90;;
8909;SDS011;4490;49.072;8.804;2023-03-19T01:30:31;6.13;;;3.63;;
8909;SDS011;4490;49.072;8.804;2023-03-19T01:32:57;5.77;;;3.67;;
8909;SDS011;4490;49.072;8.804;2023-03-19T01:35:22;7.97;;;4.03;;
8909;SDS011;4490;49.072;8.804;2023-03-19T01:37:48;6.83;;;4.47;;
8909;SDS011;4490;49.072;8.804;2023-03-19T01:40:14;4.77;;;3.63;;
8909;SDS011;4490;49.072;8.804;2023-03-19T01:45:30;4.53;;;3.40;;
8909;SDS011;4490;49.072;8.804;2023-03-19T01:47:57;6.53;;;3.43;;
8909;SDS011;4490;49.072;8.804;2023-03-19T01:50:28;4.40;;;3.37;;
8909;SDS011;4490;49.072;8.804;2023-03-19T01:53:01;6.27;;;3.90;;
8909;SDS011;4490;49.072;8.804;2023-03-19T01:55:28;9.10;;;3.70;;
8909;SDS011;4490;49.072;8.804;2023-03-19T01:57:55;6.33;;;3.40;;
8909;SDS011;4490;49.072;8.804;2023-03-19T02:00:21;7.50;;;3.60;;
8909;SDS011;4490;49.072;8.804;2023-03-19T02:02:48;4.97;;;3.80;;
8909;SDS011;4490;49.072;8.804;2023-03-19T02:05:17;4.50;;;3.53;;
8909;SDS011;4490;49.072;8.804;2023-03-19T02:07:49;5.23;;;3.57;;
8909;SDS011;4490;49.072;8.804;2023-03-19T02:10:18;5.40;;;3.43;;
8909;SDS011;4490;49.072;8.804;2023-03-19T02:12:46;5.83;;;3.70;;
8909;SDS011;4490;49.072;8.804;2023-03-19T02:15:12;5.73;;;3.80;;
8909;SDS011;4490;49.072;8.804;2023-03-19T02:17:38;6.40;;;3.73;;
8909;SDS011;4490;49.072;8.804;2023-03-19T02:22:36;5.57;;;3.80;;
8909;SDS011;4490;49.072;8.804;2023-03-19T02:25:10;5.70;;;3.63;;
8909;SDS011;4490;49.072;8.804;2023-03-19T02:27:59;6.73;;;3.93;;
8909;SDS011;4490;49.072;8.804;2023-03-19T02:30:27;3.83;;;3.30;;
8909;SDS011;4490;49.072;8.804;2023-03-19T02:32:57;5.33;;;3.67;;
8909;SDS011;4490;49.072;8.804;2023-03-19T02:35:23;3.77;;;3.33;;
8909;SDS011;4490;49.072;8.804;2023-03-19T02:37:50;3.80;;;3.07;;
8909;SDS011;4490;49.072;8.804;2023-03-19T02:40:21;6.13;;;3.33;;
8909;SDS011;4490;49.072;8.804;2023-03-19T02:42:53;6.03;;;3.33;;
8909;SDS011;4490;49.072;8.804;2023-03-19T02:45:19;7.40;;;3.07;;
8909;SDS011;4490;49.072;8.804;2023-03-19T02:47:45;5.27;;;3.67;;
8909;SDS011;4490;49.072;8.804;2023-03-19T02:50:11;4.10;;;2.90;;
8909;SDS011;4490;49.072;8.804;2023-03-19T02:52:37;4.83;;;3.27;;
8909;SDS011;4490;49.072;8.804;2023-03-19T02:55:03;5.13;;;3.07;;
8909;SDS011;4490;49.072;8.804;2023-03-19T02:57:29;5.13;;;3.00;;
8909;SDS011;4490;49.072;8.804;2023-03-19T02:59:55;4.43;;;3.20;;
8909;SDS011;4490;49.072;8.804;2023-03-19T03:02:20;7.43;;;3.43;;
8909;SDS011;4490;49.072;8.804;2023-03-19T03:04:46;4.77;;;3.23;;
8909;SDS011;4490;49.072;8.804;2023-03-19T03:07:12;3.40;;;2.90;;
8909;SDS011;4490;49.072;8.804;2023-03-19T03:09:38;3.97;;;3.13;;
8909;SDS011;4490;49.072;8.804;2023-03-19T03:12:04;8.07;;;2.97;;
8909;SDS011;4490;49.072;8.804;2023-03-19T03:14:31;3.87;;;2.97;;
8909;SDS011;4490;49.072;8.804;2023-03-19T03:16:56;4.00;;;2.77;;
8909;SDS011;4490;49.072;8.804;2023-03-19T03:19:22;5.93;;;3.40;;
8909;SDS011;4490;49.072;8.804;2023-03-19T03:21:48;4.10;;;3.20;;
8909;SDS011;4490;49.072;8.804;2023-03-19T03:24:14;4.30;;;2.80;;
8909;SDS011;4490;49.072;8.804;2023-03-19T03:26:40;4.00;;;2.80;;
8909;SDS011;4490;49.072;8.804;2023-03-19T03:29:05;5.53;;;3.20;;
8909;SDS011;4490;49.072;8.804;2023-03-19T03:31:32;8.27;;;3.30;;
8909;SDS011;4490;49.072;8.804;2023-03-19T03:33:58;5.80;;;3.27;;
8909;SDS011;4490;49.072;8.804;2023-03-19T03:36:25;3.93;;;2.90;;
8909;SDS011;4490;49.072;8.804;2023-03-19T03:38:51;5.10;;;2.80;;
8909;SDS011;4490;49.072;8.804;2023-03-19T03:41:18;4.03;;;2.77;;
8909;SDS011;4490;49.072;8.804;2023-03-19T03:43:44;6.40;;;3.10;;
8909;SDS011;4490;49.072;8.804;2023-03-19T03:46:10;3.63;;;2.57;;
8909;SDS011;4490;49.072;8.804;2023-03-19T03:48:35;2.80;;;2.60;;
8909;SDS011;4490;49.072;8.804;2023-03-19T03:51:01;4.30;;;2.83;;
8909;SDS011;4490;49.072;8.804;2023-03-19T03:53:28;5.30;;;2.97;;
8909;SDS011;4490;49.072;8.804;2023-03-19T03:55:54;3.23;;;2.93;;
8909;SDS011;4490;49.072;8.804;2023-03-19T03:58:20;4.50;;;2.80;;
8909;SDS011;4490;49.072;8.804;2023-03-19T04:00:45;5.60;;;3.03;;
8909;SDS011;4490;49.072;8.804;2023-03-19T04:03:12;5.80;;;2.63;;
8909;SDS011;4490;49.072;8.804;2023-03-19T04:05:37;4.57;;;2.90;;
8909;SDS011;4490;49.072;8.804;2023-03-19T04:08:03;3.93;;;2.87;;
8909;SDS011;4490;49.072;8.804;2023-03-19T04:10:31;3.30;;;2.67;;
8909;SDS011;4490;49.072;8.804;2023-03-19T04:12:59;7.87;;;3.17;;
8909;SDS011;4490;49.072;8.804;2023-03-19T04:15:25;3.80;;;2.67;;
8909;SDS011;4490;49.072;8.804;2023-03-19T04:17:51;3.33;;;2.90;;
8909;SDS011;4490;49.072;8.804;2023-03-19T04:20:16;3.93;;;3.00;;
8909;SDS011;4490;49.072;8.804;2023-03-19T04:22:43;3.47;;;2.80;;
8909;SDS011;4490;49.072;8.804;2023-03-19T04:25:09;6.40;;;3.10;;
8909;SDS011;4490;49.072;8.804;2023-03-19T04:27:35;5.03;;;2.90;;
8909;SDS011;4490;49.072;8.804;2023-03-19T04:30:02;5.50;;;2.93;;
8909;SDS011;4490;49.072;8.804;2023-03-19T04:32:28;3.30;;;2.77;;
8909;SDS011;4490;49.072;8.804;2023-03-19T04:34:54;4.70;;;2.77;;
8909;SDS011;4490;49.072;8.804;2023-03-19T04:37:20;7.07;;;2.63;;
8909;SDS011;4490;49.072;8.804;2023-03-19T04:39:45;4.13;;;2.90;;
8909;SDS011;4490;49.072;8.804;2023-03-19T04:42:11;4.30;;;3.10;;
8909;SDS011;4490;49.072;8.804;2023-03-19T04:44:37;5.90;;;3.40;;
8909;SDS011;4490;49.072;8.804;2023-03-19T04:47:03;4.53;;;3.67;;
8909;SDS011;4490;49.072;8.804;2023-03-19T04:49:29;4.70;;;3.30;;
8909;SDS011;4490;49.072;8.804;2023-03-19T04:51:55;4.37;;;3.20;;
8909;SDS011;4490;49.072;8.804;2023-03-19T04:54:22;5.87;;;3.30;;
8909;SDS011;4490;49.072;8.804;2023-03-19T04:56:48;3.00;;;2.70;;
8909;SDS011;4490;49.072;8.804;2023-03-19T04:59:14;6.20;;;3.30;;
8909;SDS011;4490;49.072;8.804;2023-03-19T05:01:41;4.00;;;2.43;;
8909;SDS011;4490;49.072;8.804;2023-03-19T05:04:07;5.47;;;3.03;;
8909;SDS011;4490;49.072;8.804;2023-03-19T05:06:33;4.40;;;3.17;;
8909;SDS011;4490;49.072;8.804;2023-03-19T05:08:58;4.50;;;2.80;;
8909;SDS011;4490;49.072;8.804;2023-03-19T05:11:24;4.07;;;3.00;;
8909;SDS011;4490;49.072;8.804;2023-03-19T05:13:50;4.97;;;3.13;;
8909;SDS011;4490;49.072;8.804;2023-03-19T05:16:16;4.00;;;2.57;;
8909;SDS011;4490;49.072;8.804;2023-03-19T05:18:42;3.10;;;2.80;;
8909;SDS011;4490;49.072;8.804;2023-03-19T05:21:09;3.57;;;2.60;;
8909;SDS011;4490;49.072;8.804;2023-03-19T05:23:36;3.17;;;2.60;;
8909;SDS011;4490;49.072;8.804;2023-03-19T05:26:02;4.40;;;3.10;;
8909;SDS011;4490;49.072;8.804;2023-03-19T05:28:28;4.00;;;2.73;;
8909;SDS011;4490;49.072;8.804;2023-03-19T05:30:54;4.53;;;3.10;;
8909;SDS011;4490;49.072;8.804;2023-03-19T05:33:20;3.43;;;3.10;;
8909;SDS011;4490;49.072;8.804;2023-03-19T05:35:46;3.47;;;2.80;;
8909;SDS011;4490;49.072;8.804;2023-03-19T05:38:12;3.87;;;2.77;;
8909;SDS011;4490;49.072;8.804;2023-03-19T05:40:39;4.00;;;3.07;;
8909;SDS011;4490;49.072;8.804;2023-03-19T05:43:06;3.77;;;3.10;;
8909;SDS011;4490;49.072;8.804;2023-03-19T05:45:33;3.63;;;3.23;;
8909;SDS011;4490;49.072;8.804;2023-03-19T05:48:00;4.67;;;3.03;;
8909;SDS011;4490;49.072;8.804;2023-03-19T05:50:27;5.67;;;3.13;;
8909;SDS011;4490;49.072;8.804;2023-03-19T05:52:52;4.00;;;3.20;;
8909;SDS011;4490;49.072;8.804;2023-03-19T05:55:18;3.67;;;3.20;;
8909;SDS011;4490;49.072;8.804;2023-03-19T05:57:44;4.17;;;3.37;;
8909;SDS011;4490;49.072;8.804;2023-03-19T06:00:10;4.23;;;3.37;;
8909;SDS011;4490;49.072;8.804;2023-03-19T06:02:36;3.53;;;3.13;;
8909;SDS011;4490;49.072;8.804;2023-03-19T06:05:02;4.67;;;3.20;;
8909;SDS011;4490;49.072;8.804;2023-03-19T06:07:28;3.13;;;2.80;;
8909;SDS011;4490;49.072;8.804;2023-03-19T06:09:54;5.33;;;3.07;;
8909;SDS011;4490;49.072;8.804;2023-03-19T06:12:20;3.50;;;2.70;;
8909;SDS011;4490;49.072;8.804;2023-03-19T06:14:46;3.17;;;2.80;;
8909;SDS011;4490;49.072;8.804;2023-03-19T06:17:13;3.50;;;2.93;;
8909;SDS011;4490;49.072;8.804;2023-03-19T06:19:38;3.50;;;3.00;;
8909;SDS011;4490;49.072;8.804;2023-03-19T06:22:04;3.30;;;3.00;;
8909;SDS011;4490;49.072;8.804;2023-03-19T06:24:30;3.70;;;2.63;;
8909;SDS011;4490;49.072;8.804;2023-03-19T06:26:55;3.33;;;2.77;;
8909;SDS011;4490;49.072;8.804;2023-03-19T06:29:21;5.10;;;2.87;;
8909;SDS011;4490;49.072;8.804;2023-03-19T06:31:47;4.07;;;2.93;;
8909;SDS011;4490;49.072;8.804;2023-03-19T06:34:12;5.27;;;3.03;;
8909;SDS011;4490;49.072;8.804;2023-03-19T06:36:38;3.50;;;2.90;;
8909;SDS011;4490;49.072;8.804;2023-03-19T06:39:04;3.13;;;2.60;;
8909;SDS011;4490;49.072;8.804;2023-03-19T06:41:29;3.43;;;2.63;;
8909;SDS011;4490;49.072;8.804;2023-03-19T06:43:56;3.80;;;3.20;;
8909;SDS011;4490;49.072;8.804;2023-03-19T06:46:21;5.43;;;3.40;;
8909;SDS011;4490;49.072;8.804;2023-03-19T06:48:48;6.10;;;3.90;;
8909;SDS011;4490;49.072;8.804;2023-03-19T06:51:13;6.00;;;3.17;;
8909;SDS011;4490;49.072;8.804;2023-03-19T06:53:39;3.77;;;2.87;;
8909;SDS011;4490;49.072;8.804;2023-03-19T06:56:05;4.03;;;2.53;;
8909;SDS011;4490;49.072;8.804;2023-03-19T06:58:30;2.80;;;2.43;;
8909;SDS011;4490;49.072;8.804;2023-03-19T07:00:56;4.47;;;2.57;;
8909;SDS011;4490;49.072;8.804;2023-03-19T07:03:22;3.47;;;2.40;;
8909;SDS011;4490;49.072;8.804;2023-03-19T07:05:50;4.30;;;2.70;;
8909;SDS011;4490;49.072;8.804;2023-03-19T07:08:16;3.50;;;2.80;;
8909;SDS011;4490;49.072;8.804;2023-03-19T07:10:42;5.83;;;3.60;;
8909;SDS011;4490;49.072;8.804;2023-03-19T07:13:07;4.00;;;3.00;;
8909;SDS011;4490;49.072;8.804;2023-03-19T07:15:33;3.20;;;2.90;;
8909;SDS011;4490;49.072;8.804;2023-03-19T07:18:00;3.40;;;2.77;;
8909;SDS011;4490;49.072;8.804;2023-03-19T07:20:26;4.90;;;2.90;;
8909;SDS011;4490;49.072;8.804;2023-03-19T07:22:52;2.50;;;2.30;;
8909;SDS011;4490;49.072;8.804;2023-03-19T07:25:18;3.97;;;2.40;;
8909;SDS011;4490;49.072;8.804;2023-03-19T07:27:45;3.93;;;2.50;;
8909;SDS011;4490;49.072;8.804;2023-03-19T07:30:10;5.83;;;2.90;;
8909;SDS011;4490;49.072;8.804;2023-03-19T07:32:37;4.03;;;3.00;;
8909;SDS011;4490;49.072;8.804;2023-03-19T07:35:04;5.57;;;2.60;;
8909;SDS011;4490;49.072;8.804;2023-03-19T07:37:31;4.73;;;3.13;;
8909;SDS011;4490;49.072;8.804;2023-03-19T07:39:57;3.17;;;2.10;;
8909;SDS011;4490;49.072;8.804;2023-03-19T07:42:23;4.43;;;3.00;;
8909;SDS011;4490;49.072;8.804;2023-03-19T07:44:48;4.70;;;2.87;;
8909;SDS011;4490;49.072;8.804;2023-03-19T07:47:14;4.50;;;2.43;;
8909;SDS011;4490;49.072;8.804;2023-03-19T07:49:40;3.10;;;2.67;;
8909;SDS011;4490;49.072;8.804;2023-03-19T07:52:06;2.90;;;2.47;;
8909;SDS011;4490;49.072;8.804;2023-03-19T07:54:32;3.57;;;2.40;;
8909;SDS011;4490;49.072;8.804;2023-03-19T07:56:57;4.50;;;2.40;;
8909;SDS011;4490;49.072;8.804;2023-03-19T07:59:23;3.50;;;2.53;;
8909;SDS011;4490;49.072;8.804;2023-03-19T08:01:49;4.80;;;2.60;;
8909;SDS011;4490;49.072;8.804;2023-03-19T08:04:14;4.43;;;2.53;;
8909;SDS011;4490;49.072;8.804;2023-03-19T08:06:40;3.00;;;2.70;;
8909;SDS011;4490;49.072;8.804;2023-03-19T08:09:06;4.50;;;2.70;;
8909;SDS011;4490;49.072;8.804;2023-03-19T08:11:32;3.80;;;2.87;;
8909;SDS011;4490;49.072;8.804;2023-03-19T08:13:57;3.37;;;2.33;;
8909;SDS011;4490;49.072;8.804;2023-03-19T08:16:23;3.20;;;2.40;;
8909;SDS011;4490;49.072;8.804;2023-03-19T08:18:48;3.90;;;2.17;;
8909;SDS011;4490;49.072;8.804;2023-03-19T08:21:15;2.67;;;2.07;;
8909;SDS011;4490;49.072;8.804;2023-03-19T08:23:41;3.37;;;2.30;;
8909;SDS011;4490;49.072;8.804;2023-03-19T08:26:07;4.37;;;2.30;;
8909;SDS011;4490;49.072;8.804;2023-03-19T08:28:32;3.07;;;2.33;;
8909;SDS011;4490;49.072;8.804;2023-03-19T08:31:06;3.57;;;2.30;;
8909;SDS011;4490;49.072;8.804;2023-03-19T08:33:32;2.57;;;2.03;;
8909;SDS011;4490;49.072;8.804;2023-03-19T08:36:08;3.93;;;2.37;;
8909;SDS011;4490;49.072;8.804;2023-03-19T08:38:36;3.37;;;2.07;;
8909;SDS011;4490;49.072;8.804;2023-03-19T08:41:02;3.00;;;2.20;;
8909;SDS011;4490;49.072;8.804;2023-03-19T08:43:29;3.87;;;2.33;;
8909;SDS011;4490;49.072;8.804;2023-03-19T08:45:55;2.33;;;2.10;;
8909;SDS011;4490;49.072;8.804;2023-03-19T08:48:21;2.27;;;1.90;;
8909;SDS011;4490;49.072;8.804;2023-03-19T08:51:05;2.93;;;2.00;;
8909;SDS011;4490;49.072;8.804;2023-03-19T08:53:31;3.03;;;2.00;;
8909;SDS011;4490;49.072;8.804;2023-03-19T08:55:58;2.70;;;1.93;;
8909;SDS011;4490;49.072;8.804;2023-03-19T08:58:25;3.13;;;2.00;;
8909;SDS011;4490;49.072;8.804;2023-03-19T09:00:52;2.67;;;2.10;;
8909;SDS011;4490;49.072;8.804;2023-03-19T09:03:18;2.93;;;2.63;;
8909;SDS011;4490;49.072;8.804;2023-03-19T09:05:45;4.10;;;2.97;;
8909;SDS011;4490;49.072;8.804;2023-03-19T09:08:11;4.00;;;2.60;;
8909;SDS011;4490;49.072;8.804;2023-03-19T09:10:38;4.00;;;2.30;;
8909;SDS011;4490;49.072;8.804;2023-03-19T09:13:04;2.37;;;2.13;;
8909;SDS011;4490;49.072;8.804;2023-03-19T09:15:30;2.60;;;2.10;;
8909;SDS011;4490;49.072;8.804;2023-03-19T09:17:55;3.70;;;2.00;;
8909;SDS011;4490;49.072;8.804;2023-03-19T09:20:21;2.70;;;1.90;;
8909;SDS011;4490;49.072;8.804;2023-03-19T09:22:47;2.90;;;1.93;;
8909;SDS011;4490;49.072;8.804;2023-03-19T09:25:12;4.40;;;2.20;;
8909;SDS011;4490;49.072;8.804;2023-03-19T09:27:38;3.43;;;1.93;;
8909;SDS011;4490;49.072;8.804;2023-03-19T09:30:04;3.23;;;2.10;;
8909;SDS011;4490;49.072;8.804;2023-03-19T09:32:33;2.37;;;1.90;;
8909;SDS011;4490;49.072;8.804;2023-03-19T09:34:59;1.93;;;1.80;;
8909;SDS011;4490;49.072;8.804;2023-03-19T09:37:25;2.27;;;2.07;;
8909;SDS011;4490;49.072;8.804;2023-03-19T09:39:50;2.60;;;2.03;;
8909;SDS011;4490;49.072;8.804;2023-03-19T09:45:18;3.55;;;2.00;;
8909;SDS011;4490;49.072;8.804;2023-03-19T09:47:44;4.05;;;2.17;;
8909;SDS011;4490;49.072;8.804;2023-03-19T09:50:14;2.55;;;2.17;;
8909;SDS011;4490;49.072;8.804;2023-03-19T09:57:53;5.07;;;2.25;;
8909;SDS011;4490;49.072;8.804;2023-03-19T10:00:21;4.75;;;2.38;;
8909;SDS011;4490;49.072;8.804;2023-03-19T10:03:14;3.53;;;2.38;;
8909;SDS011;4490;49.072;8.804;2023-03-19T10:11:51;4.28;;;2.17;;
8909;SDS011;4490;49.072;8.804;2023-03-19T10:17:11;3.50;;;2.45;;
8909;SDS011;4490;49.072;8.804;2023-03-19T10:19:44;4.00;;;2.50;;
8909;SDS011;4490;49.072;8.804;2023-03-19T10:22:23;2.97;;;2.10;;
8909;SDS011;4490;49.072;8.804;2023-03-19T10:24:53;4.28;;;2.30;;
8909;SDS011;4490;49.072;8.804;2023-03-19T10:27:21;2.42;;;2.22;;
8909;SDS011;4490;49.072;8.804;2023-03-19T10:29:50;4.30;;;2.30;;
8909;SDS011;4490;49.072;8.804;2023-03-19T10:34:55;2.40;;;2.00;;
8909;SDS011;4490;49.072;8.804;2023-03-19T10:37:26;2.97;;;2.10;;
8909;SDS011;4490;49.072;8.804;2023-03-19T10:39:57;6.07;;;2.30;;
8909;SDS011;4490;49.072;8.804;2023-03-19T10:45:23;3.40;;;2.10;;
8909;SDS011;4490;49.072;8.804;2023-03-19T10:47:55;3.00;;;2.37;;
8909;SDS011;4490;49.072;8.804;2023-03-19T10:50:27;3.30;;;2.40;;
8909;SDS011;4490;49.072;8.804;2023-03-19T10:53:02;4.03;;;2.13;;
8909;SDS011;4490;49.072;8.804;2023-03-19T10:55:38;2.80;;;1.93;;
8909;SDS011;4490;49.072;8.804;2023-03-19T10:58:19;2.77;;;2.00;;
8909;SDS011;4490;49.072;8.804;2023-03-19T11:00:55;3.03;;;2.10;;
8909;SDS011;4490;49.072;8.804;2023-03-19T11:03:38;2.47;;;2.00;;
8909;SDS011;4490;49.072;8.804;2023-03-19T11:06:20;3.15;;;2.47;;
8909;SDS011;4490;49.072;8.804;2023-03-19T11:08:58;9.10;;;2.35;;
8909;SDS011;4490;49.072;8.804;2023-03-19T11:14:23;2.95;;;2.20;;
8909;SDS011;4490;49.072;8.804;2023-03-19T11:19:28;3.88;;;2.33;;
8909;SDS011;4490;49.072;8.804;2023-03-19T11:25:15;3.83;;;2.38;;
8909;SDS011;4490;49.072;8.804;2023-03-19T11:27:57;3.72;;;2.33;;
8909;SDS011;4490;49.072;8.804;2023-03-19T11:30:38;3.05;;;2.30;;
8909;SDS011;4490;49.072;8.804;2023-03-19T11:38:18;3.13;;;2.17;;
8909;SDS011;4490;49.072;8.804;2023-03-19T11:40:58;3.70;;;2.70;;
8909;SDS011;4490;49.072;8.804;2023-03-19T11:43:45;3.83;;;2.22;;
8909;SDS011;4490;49.072;8.804;2023-03-19T11:46:35;4.43;;;2.33;;
8909;SDS011;4490;49.072;8.804;2023-03-19T12:11:06;2.25;;;1.95;;
8909;SDS011;4490;49.072;8.804;2023-03-19T12:26:48;4.07;;;2.10;;
8909;SDS011;4490;49.072;8.804;2023-03-19T12:32:19;4.63;;;2.50;;
8909;SDS011;4490;49.072;8.804;2023-03-19T12:35:12;7.10;;;2.53;;
8909;SDS011;4490;49.072;8.804;2023-03-19T12:37:44;4.13;;;2.30;;
8909;SDS011;4490;49.072;8.804;2023-03-19T12:40:27;3.00;;;2.30;;
8909;SDS011;4490;49.072;8.804;2023-03-19T12:42:57;3.00;;;2.50;;
8909;SDS011;4490;49.072;8.804;2023-03-19T12:45:36;3.50;;;2.40;;
8909;SDS011;4490;49.072;8.804;2023-03-19T12:48:07;3.27;;;2.40;;
8909;SDS011;4490;49.072;8.804;2023-03-19T12:50:48;4.38;;;2.50;;
8909;SDS011;4490;49.072;8.804;2023-03-19T12:53:21;3.57;;;2.10;;
8909;SDS011;4490;49.072;8.804;2023-03-19T12:55:59;4.43;;;2.43;;
8909;SDS011;4490;49.072;8.804;2023-03-19T12:58:37;3.78;;;2.42;;
8909;SDS011;4490;49.072;8.804;2023-03-19T13:01:11;5.07;;;2.67;;
8909;SDS011;4490;49.072;8.804;2023-03-19T13:03:43;4.77;;;2.93;;
8909;SDS011;4490;49.072;8.804;2023-03-19T13:08:51;3.70;;;2.60;;
8909;SDS011;4490;49.072;8.804;2023-03-19T13:14:18;6.43;;;2.90;;
8909;SDS011;4490;49.072;8.804;2023-03-19T13:17:07;4.33;;;2.73;;
8909;SDS011;4490;49.072;8.804;2023-03-19T13:19:47;5.23;;;2.50;;
8909;SDS011;4490;49.072;8.804;2023-03-19T13:22:20;5.10;;;2.50;;
8909;SDS011;4490;49.072;8.804;2023-03-19T13:24:55;6.67;;;2.23;;
8909;SDS011;4490;49.072;8.804;2023-03-19T13:27:30;5.50;;;2.40;;
8909;SDS011;4490;49.072;8.804;2023-03-19T13:32:36;3.60;;;2.33;;
8909;SDS011;4490;49.072;8.804;2023-03-19T13:38:02;4.60;;;2.60;;
8909;SDS011;4490;49.072;8.804;2023-03-19T13:46:04;5.73;;;3.47;;
8909;SDS011;4490;49.072;8.804;2023-03-19T13:51:46;4.53;;;2.77;;
8909;SDS011;4490;49.072;8.804;2023-03-19T13:54:19;4.33;;;2.60;;
8909;SDS011;4490;49.072;8.804;2023-03-19T13:56:55;4.57;;;2.57;;
8909;SDS011;4490;49.072;8.804;2023-03-19T13:59:28;3.03;;;2.40;;
8909;SDS011;4490;49.072;8.804;2023-03-19T14:07:41;3.40;;;2.27;;
8909;SDS011;4490;49.072;8.804;2023-03-19T14:10:13;4.77;;;2.37;;
8909;SDS011;4490;49.072;8.804;2023-03-19T14:12:42;5.77;;;2.90;;
8909;SDS011;4490;49.072;8.804;2023-03-19T14:25:50;4.03;;;2.60;;
8909;SDS011;4490;49.072;8.804;2023-03-19T14:31:03;4.13;;;2.70;;
8909;SDS011;4490;49.072;8.804;2023-03-19T14:34:14;4.57;;;2.77;;
8909;SDS011;4490;49.072;8.804;2023-03-19T14:36:43;7.37;;;5.30;;
8909;SDS011;4490;49.072;8.804;2023-03-19T14:39:22;11.67;;;7.33;;
8909;SDS011;4490;49.072;8.804;2023-03-19T14:41:58;5.60;;;3.60;;
8909;SDS011;4490;49.072;8.804;2023-03-19T14:50:29;6.20;;;4.90;;
8909;SDS011;4490;49.072;8.804;2023-03-19T14:55:50;3.70;;;2.97;;
8909;SDS011;4490;49.072;8.804;2023-03-19T14:58:20;9.03;;;4.53;;
8909;SDS011;4490;49.072;8.804;2023-03-19T15:00:56;12.27;;;7.03;;
8909;SDS011;4490;49.072;8.804;2023-03-19T15:03:29;14.80;;;9.27;;
8909;SDS011;4490;49.072;8.804;2023-03-19T15:05:59;12.00;;;7.60;;
8909;SDS011;4490;49.072;8.804;2023-03-19T15:08:28;7.37;;;5.60;;
8909;SDS011;4490;49.072;8.804;2023-03-19T15:11:40;5.07;;;3.40;;
8909;SDS011;4490;49.072;8.804;2023-03-19T15:14:01;5.97;;;3.70;;
8909;SDS011;4490;49.072;8.804;2023-03-19T15:16:46;5.53;;;2.80;;
8909;SDS011;4490;49.072;8.804;2023-03-19T15:19:25;3.73;;;2.47;;
8909;SDS011;4490;49.072;8.804;2023-03-19T15:22:03;3.50;;;2.83;;
8909;SDS011;4490;49.072;8.804;2023-03-19T15:24:40;5.13;;;3.50;;
8909;SDS011;4490;49.072;8.804;2023-03-19T15:29:45;4.53;;;2.70;;
8909;SDS011;4490;49.072;8.804;2023-03-19T15:32:11;3.27;;;2.50;;
8909;SDS011;4490;49.072;8.804;2023-03-19T15:34:37;3.20;;;2.50;;
8909;SDS011;4490;49.072;8.804;2023-03-19T15:37:04;4.80;;;3.03;;
8909;SDS011;4490;49.072;8.804;2023-03-19T15:39:47;3.73;;;2.60;;
8909;SDS011;4490;49.072;8.804;2023-03-19T15:42:16;3.60;;;2.80;;
8909;SDS011;4490;49.072;8.804;2023-03-19T15:44:49;5.73;;;3.50;;
8909;SDS011;4490;49.072;8.804;2023-03-19T15:47:19;5.27;;;3.70;;
8909;SDS011;4490;49.072;8.804;2023-03-19T15:49:52;4.17;;;2.80;;
8909;SDS011;4490;49.072;8.804;2023-03-19T15:52:29;6.87;;;5.00;;
8909;SDS011;4490;49.072;8.804;2023-03-19T15:54:58;3.30;;;3.00;;
8909;SDS011;4490;49.072;8.804;2023-03-19T15:57:26;5.17;;;3.13;;
8909;SDS011;4490;49.072;8.804;2023-03-19T15:59:53;5.00;;;3.00;;
8909;SDS011;4490;49.072;8.804;2023-03-19T16:02:25;3.77;;;2.90;;
8909;SDS011;4490;49.072;8.804;2023-03-19T16:04:55;5.17;;;3.30;;
8909;SDS011;4490;49.072;8.804;2023-03-19T16:07:34;3.23;;;2.90;;
8909;SDS011;4490;49.072;8.804;2023-03-19T16:13:26;3.20;;;2.80;;
8909;SDS011;4490;49.072;8.804;2023-03-19T16:18:48;4.13;;;2.90;;
8909;SDS011;4490;49.072;8.804;2023-03-19T16:21:17;3.40;;;2.77;;
8909;SDS011;4490;49.072;8.804;2023-03-19T16:23:57;6.07;;;3.67;;
8909;SDS011;4490;49.072;8.804;2023-03-19T16:26:48;4.03;;;3.30;;
8909;SDS011;4490;49.072;8.804;2023-03-19T16:29:22;3.53;;;3.10;;
8909;SDS011;4490;49.072;8.804;2023-03-19T16:31:58;5.20;;;3.17;;
8909;SDS011;4490;49.072;8.804;2023-03-19T16:34:30;4.33;;;3.30;;
8909;SDS011;4490;49.072;8.804;2023-03-19T16:37:02;5.17;;;3.40;;
8909;SDS011;4490;49.072;8.804;2023-03-19T16:40:40;5.27;;;3.47;;
8909;SDS011;4490;49.072;8.804;2023-03-19T16:42:48;5.30;;;3.70;;
8909;SDS011;4490;49.072;8.804;2023-03-19T16:47:56;4.57;;;3.50;;
8909;SDS011;4490;49.072;8.804;2023-03-19T16:50:28;7.83;;;4.00;;
8909;SDS011;4490;49.072;8.804;2023-03-19T16:52:54;4.53;;;3.63;;
8909;SDS011;4490;49.072;8.804;2023-03-19T16:55:22;7.27;;;3.57;;
8909;SDS011;4490;49.072;8.804;2023-03-19T16:57:55;6.93;;;3.30;;
8909;SDS011;4490;49.072;8.804;2023-03-19T17:00:26;5.03;;;3.67;;
8909;SDS011;4490;49.072;8.804;2023-03-19T17:02:53;5.07;;;3.43;;
8909;SDS011;4490;49.072;8.804;2023-03-19T17:05:23;7.53;;;4.10;;
8909;SDS011;4490;49.072;8.804;2023-03-19T17:07:49;5.80;;;3.90;;
8909;SDS011;4490;49.072;8.804;2023-03-19T17:10:16;5.67;;;3.90;;
8909;SDS011;4490;49.072;8.804;2023-03-19T17:12:44;5.47;;;3.97;;
8909;SDS011;4490;49.072;8.804;2023-03-19T17:15:16;4.93;;;3.87;;
8909;SDS011;4490;49.072;8.804;2023-03-19T17:21:08;2.70;;;1.90;;
8909;SDS011;4490;49.072;8.804;2023-03-19T17:23:40;2.00;;;1.80;;
8909;SDS011;4490;49.072;8.804;2023-03-19T17:29:04;1.30;;;1.20;;
8909;SDS011;4490;49.072;8.804;2023-03-19T17:31:31;1.40;;;1.20;;
8909;SDS011;4490;49.072;8.804;2023-03-19T17:34:00;1.47;;;1.03;;
8909;SDS011;4490;49.072;8.804;2023-03-19T17:36:30;2.57;;;1.17;;
8909;SDS011;4490;49.072;8.804;2023-03-19T17:38:57;1.43;;;0.93;;
8909;SDS011;4490;49.072;8.804;2023-03-19T17:41:22;1.10;;;0.97;;
8909;SDS011;4490;49.072;8.804;2023-03-19T17:43:48;0.80;;;0.80;;
8909;SDS011;4490;49.072;8.804;2023-03-19T17:46:18;0.93;;;0.93;;
8909;SDS011;4490;49.072;8.804;2023-03-19T17:48:46;1.43;;;1.10;;
8909;SDS011;4490;49.072;8.804;2023-03-19T17:51:12;0.93;;;0.93;;